Time;durP1;ratioP1;P1;durP2;ratioP2;P2;SDS_P1;SDS_P2;PMS_P1;PMS_P2;Temp;Humidity;BMP_temperature;BMP_pressure;BME280_temperature;BME280_humidity;BME280_pressure;Samples;Min_cycle;Max_cycle;Signal;HPM_P1;HPM_P2
2023/03/31 00:02:12;;;;;;;5.53;1.90;;;9.90;99.90;;;;;;6182364;23;20155;-79
2023/03/31 00:04:51;;;;;;;4.93;2.03;;;9.80;1.00;;;;;;6209198;23;20135;-79
2023/03/31 00:07:20;;;;;;;4.10;1.90;;;10.00;99.90;;;;;;6182373;23;20190;-80
2023/03/31 00:09:47;;;;;;;4.83;1.77;;;10.00;99.90;;;;;;6208980;23;20154;-78
2023/03/31 00:12:16;;;;;;;3.87;1.60;;;9.90;99.90;;;;;;6182427;23;20171;-78
2023/03/31 00:14:43;;;;;;;1.67;1.20;;;9.90;99.90;;;;;;6181775;23;20245;-78
2023/03/31 00:17:09;;;;;;;3.97;1.80;;;9.90;99.90;;;;;;6182230;23;20486;-79
2023/03/31 00:19:36;;;;;;;4.55;1.50;;;9.90;99.90;;;;;;6208505;23;20773;-79
2023/03/31 00:22:04;;;;;;;3.42;1.35;;;9.90;99.90;;;;;;6181867;23;20297;-79
2023/03/31 00:24:32;;;;;;;4.85;1.50;;;9.90;99.90;;;;;;6181820;23;20202;-79
2023/03/31 00:26:59;;;;;;;3.05;1.40;;;9.90;99.90;;;;;;6208463;23;20154;-80
2023/03/31 00:29:25;;;;;;;4.47;1.40;;;9.90;99.90;;;;;;6212180;23;21054;-80
2023/03/31 00:31:51;;;;;;;4.03;1.23;;;10.00;99.90;;;;;;6210021;23;20173;-79
2023/03/31 00:34:17;;;;;;;2.20;1.20;;;10.10;99.90;;;;;;6181545;23;20233;-79
2023/03/31 00:36:46;;;;;;;4.33;1.50;;;10.20;99.90;;;;;;6210288;23;20198;-78
2023/03/31 00:39:14;;;;;;;4.18;1.30;;;10.20;99.90;;;;;;6184365;23;20205;-79
2023/03/31 00:41:40;;;;;;;4.50;1.50;;;10.30;99.90;;;;;;6184993;23;20185;-80
2023/03/31 00:44:21;;;;;;;3.27;1.23;;;10.30;99.90;;;;;;6210812;23;20570;-79
2023/03/31 00:47:06;;;;;;;4.83;1.50;;;10.30;99.90;;;;;;6211078;23;20177;-80
2023/03/31 00:49:39;;;;;;;3.57;1.37;;;10.40;99.90;;;;;;6210315;23;20327;-78
2023/03/31 00:52:21;;;;;;;3.93;1.40;;;10.50;99.90;;;;;;6182841;23;20163;-78
2023/03/31 00:54:53;;;;;;;5.22;1.60;;;10.50;99.90;;;;;;6182731;23;20154;-80
2023/03/31 00:57:19;;;;;;;5.07;1.73;;;10.50;99.90;;;;;;6210475;23;20178;-81
2023/03/31 00:59:49;;;;;;;3.33;1.10;;;10.50;99.90;;;;;;6210199;23;20154;-78
2023/03/31 01:02:16;;;;;;;5.13;1.60;;;10.50;99.70;;;;;;6210879;23;20155;-80
2023/03/31 01:04:49;;;;;;;1.73;1.00;;;10.50;93.30;;;;;;6210047;23;20159;-78
2023/03/31 01:07:22;;;;;;;2.25;1.20;;;10.60;86.00;;;;;;6209936;23;20149;-80
2023/03/31 01:09:53;;;;;;;5.03;1.50;;;10.50;91.40;;;;;;6210154;23;20201;-79
2023/03/31 01:12:19;;;;;;;5.60;1.33;;;10.50;91.50;;;;;;6183438;23;20532;-79
2023/03/31 01:14:45;;;;;;;5.47;1.40;;;10.60;72.60;;;;;;6182547;23;20174;-79
2023/03/31 01:17:17;;;;;;;3.50;1.40;;;11.10;55.10;;;;;;6186990;23;20154;-81
2023/03/31 01:19:46;;;;;;;3.40;1.40;;;10.70;52.20;;;;;;6214001;23;20217;-80
2023/03/31 01:22:48;;;;;;;3.37;1.30;;;10.70;40.20;;;;;;6188079;23;20154;-77
2023/03/31 01:25:49;;;;;;;4.20;1.30;;;10.70;42.50;;;;;;6212349;23;20166;-78
2023/03/31 01:28:30;;;;;;;4.00;1.40;;;10.70;40.10;;;;;;6183812;23;20182;-79
2023/03/31 01:31:35;;;;;;;3.17;0.87;;;10.60;36.10;;;;;;6209675;23;20146;-78
2023/03/31 01:34:28;;;;;;;5.40;1.20;;;10.60;35.90;;;;;;6182672;23;20517;-79
2023/03/31 01:36:56;;;;;;;4.03;1.50;;;10.60;32.30;;;;;;6182698;23;20228;-78
2023/03/31 01:40:09;;;;;;;3.78;1.35;;;10.60;34.30;;;;;;6182915;23;20255;-78
2023/03/31 01:42:46;;;;;;;3.03;1.20;;;10.60;32.20;;;;;;6163808;23;20174;-78
2023/03/31 01:45:36;;;;;;;3.90;1.20;;;10.50;34.00;;;;;;6182482;23;20186;-81
2023/03/31 01:48:17;;;;;;;3.93;1.27;;;10.50;36.10;;;;;;6209382;23;20197;-79
2023/03/31 01:50:48;;;;;;;2.43;1.10;;;10.40;40.60;;;;;;6209281;23;20142;-78
2023/03/31 01:53:24;;;;;;;2.07;1.17;;;10.20;43.40;;;;;;6183077;23;20229;-79
2023/03/31 01:56:05;;;;;;;2.23;1.00;;;10.30;49.00;;;;;;6182219;23;20182;-78
2023/03/31 01:58:53;;;;;;;4.97;1.40;;;10.30;44.70;;;;;;6182427;23;20169;-78
2023/03/31 02:01:45;;;;;;;4.43;1.10;;;10.20;47.40;;;;;;6182719;23;20209;-77
2023/03/31 02:04:33;;;;;;;4.10;1.00;;;10.20;48.80;;;;;;6202336;23;20162;-79
2023/03/31 02:07:04;;;;;;;1.87;0.90;;;10.10;51.20;;;;;;6209287;23;20138;-80
2023/03/31 02:09:38;;;;;;;3.27;1.00;;;10.10;70.00;;;;;;6208722;23;20143;-77
2023/03/31 02:12:08;;;;;;;3.37;1.07;;;10.20;44.10;;;;;;6208637;23;20149;-78
2023/03/31 02:14:35;;;;;;;3.17;0.93;;;10.30;44.20;;;;;;6208852;23;20150;-78
2023/03/31 02:17:02;;;;;;;4.97;1.30;;;10.20;40.80;;;;;;6209388;23;20163;-77
2023/03/31 02:19:38;;;;;;;3.80;0.90;;;10.30;39.70;;;;;;6209030;23;20158;-78
2023/03/31 02:22:06;;;;;;;4.27;1.13;;;10.30;39.80;;;;;;6208754;23;20138;-78
2023/03/31 02:24:35;;;;;;;4.47;1.07;;;10.30;34.40;;;;;;6208650;23;20162;-77
2023/03/31 02:27:13;;;;;;;2.63;1.00;;;10.20;40.50;;;;;;6209227;23;20154;-79
2023/03/31 02:29:39;;;;;;;4.87;1.23;;;10.10;46.40;;;;;;6208919;23;20144;-77
2023/03/31 02:32:24;;;;;;;5.87;1.20;;;9.90;65.50;;;;;;6207436;23;20158;-78
2023/03/31 02:34:49;;;;;;;3.00;1.10;;;9.90;84.50;;;;;;6208582;23;20212;-79
2023/03/31 02:37:15;;;;;;;2.90;0.90;;;9.80;93.10;;;;;;6208441;23;20151;-77
2023/03/31 02:39:45;;;;;;;3.10;1.00;;;9.70;91.60;;;;;;6208668;23;20629;-78
2023/03/31 02:42:11;;;;;;;5.10;1.27;;;9.70;94.90;;;;;;6208259;23;20728;-79
2023/03/31 02:44:38;;;;;;;2.57;0.80;;;9.70;97.00;;;;;;6207624;23;20154;-78
2023/03/31 02:47:12;;;;;;;4.50;1.53;;;9.60;99.40;;;;;;6181042;23;20158;-77
2023/03/31 02:49:44;;;;;;;3.23;1.00;;;9.60;99.90;;;;;;6209498;23;20551;-79
2023/03/31 02:52:36;;;;;;;5.47;1.20;;;9.50;99.90;;;;;;6207473;23;20145;-77
2023/03/31 02:55:20;;;;;;;3.53;1.13;;;9.40;99.90;;;;;;6208088;23;20194;-78
2023/03/31 02:58:20;;;;;;;4.70;1.67;;;9.40;99.90;;;;;;6208135;23;20221;-80
2023/03/31 03:01:01;;;;;;;3.97;1.10;;;9.30;99.90;;;;;;6211674;23;20181;-80
2023/03/31 03:03:45;;;;;;;2.87;1.30;;;9.30;99.90;;;;;;6181215;23;20158;-79
2023/03/31 03:06:32;;;;;;;2.60;1.07;;;9.30;99.90;;;;;;6208679;23;20178;-77
2023/03/31 03:09:28;;;;;;;2.63;1.07;;;9.30;99.90;;;;;;6208109;23;20174;-78
2023/03/31 03:11:59;;;;;;;3.90;1.07;;;9.30;99.90;;;;;;6181145;23;20518;-77
2023/03/31 03:14:28;;;;;;;3.80;1.30;;;9.40;99.90;;;;;;6180964;23;20579;-79
2023/03/31 03:17:28;;;;;;;3.40;1.10;;;9.40;99.90;;;;;;6207488;23;20184;-77
2023/03/31 03:19:57;;;;;;;4.90;1.20;;;9.40;99.90;;;;;;6174637;23;20170;-77
2023/03/31 03:22:23;;;;;;;3.23;1.10;;;9.40;99.90;;;;;;6180833;23;20158;-78
2023/03/31 03:24:50;;;;;;;3.77;1.17;;;9.40;99.90;;;;;;6207223;23;20261;-78
2023/03/31 03:27:16;;;;;;;4.70;1.00;;;9.40;99.90;;;;;;6180394;23;20158;-78
2023/03/31 03:29:42;;;;;;;3.70;1.30;;;9.40;99.90;;;;;;6205034;23;20230;-77
2023/03/31 03:32:08;;;;;;;3.87;1.10;;;9.40;99.90;;;;;;6177734;23;20162;-78
2023/03/31 03:34:34;;;;;;;6.43;1.30;;;9.40;99.90;;;;;;6178635;23;20162;-78
2023/03/31 03:37:00;;;;;;;4.47;1.43;;;9.40;99.90;;;;;;6180401;23;20161;-77
2023/03/31 03:39:25;;;;;;;5.83;1.20;;;9.40;99.90;;;;;;6206659;23;20241;-79
2023/03/31 03:41:51;;;;;;;4.47;1.47;;;9.40;99.90;;;;;;6179262;23;20181;-78
2023/03/31 03:44:16;;;;;;;6.33;1.60;;;9.50;99.90;;;;;;6179832;23;20158;-78
2023/03/31 03:46:42;;;;;;;3.07;1.10;;;9.50;99.90;;;;;;6206543;23;20200;-78
2023/03/31 03:49:07;;;;;;;2.40;0.80;;;9.60;99.90;;;;;;6179620;23;20538;-79
2023/03/31 03:51:33;;;;;;;3.50;1.17;;;9.60;99.90;;;;;;6207895;23;20154;-79
2023/03/31 03:53:59;;;;;;;4.90;1.27;;;9.60;99.90;;;;;;6206066;23;20155;-79
2023/03/31 03:56:25;;;;;;;2.73;1.10;;;9.50;99.90;;;;;;6180235;23;20186;-79
2023/03/31 03:58:50;;;;;;;3.90;1.13;;;9.60;99.90;;;;;;6208564;23;20154;-80
2023/03/31 04:01:17;;;;;;;3.20;1.00;;;9.50;99.90;;;;;;6207909;23;20169;-77
2023/03/31 04:03:43;;;;;;;4.03;1.03;;;9.50;99.90;;;;;;6183770;23;20285;-78
2023/03/31 04:06:09;;;;;;;4.50;1.90;;;9.50;99.90;;;;;;6181493;23;20178;-78
2023/03/31 04:08:35;;;;;;;4.00;1.37;;;9.40;99.90;;;;;;6180446;23;20190;-79
2023/03/31 04:11:02;;;;;;;2.77;1.17;;;9.20;99.90;;;;;;6207320;23;20200;-79
2023/03/31 04:13:27;;;;;;;5.47;1.30;;;9.10;99.90;;;;;;6207330;23;20151;-78
2023/03/31 04:15:53;;;;;;;1.70;1.10;;;9.10;99.90;;;;;;6207421;23;20755;-78
2023/03/31 04:18:21;;;;;;;3.17;1.20;;;9.00;99.90;;;;;;6180507;23;20641;-78
2023/03/31 04:21:05;;;;;;;4.30;1.60;;;8.90;99.90;;;;;;6181655;23;20169;-78
2023/03/31 04:23:45;;;;;;;4.97;1.67;;;8.80;99.90;;;;;;6208487;23;20146;-78
2023/03/31 04:26:12;;;;;;;5.87;1.40;;;8.70;99.90;;;;;;6209356;23;20247;-79
2023/03/31 04:28:41;;;;;;;4.53;1.40;;;8.60;99.90;;;;;;6209694;23;20174;-78
2023/03/31 04:31:09;;;;;;;4.00;1.33;;;8.50;99.90;;;;;;6183257;23;20162;-79
2023/03/31 04:33:38;;;;;;;5.00;1.40;;;8.30;99.90;;;;;;6210975;23;20206;-80
2023/03/31 04:36:16;;;;;;;3.23;1.07;;;8.30;99.90;;;;;;6184657;23;20817;-79
2023/03/31 04:38:45;;;;;;;4.13;1.30;;;8.20;99.90;;;;;;6209482;23;20743;-79
2023/03/31 04:41:11;;;;;;;3.70;1.33;;;8.10;1.00;;;;;;6209764;23;20170;-79
2023/03/31 04:43:38;;;;;;;4.43;1.60;;;8.00;1.00;;;;;;6209958;23;20216;-79
2023/03/31 04:46:04;;;;;;;3.07;1.53;;;8.10;1.00;;;;;;6183025;23;20523;-79
2023/03/31 04:48:29;;;;;;;3.57;1.40;;;7.90;1.00;;;;;;6183022;23;20236;-79
2023/03/31 04:50:55;;;;;;;4.13;1.37;;;7.90;1.00;;;;;;6209505;23;20157;-79
2023/03/31 04:53:21;;;;;;;5.43;1.80;;;7.80;1.00;;;;;;6182733;23;20166;-79
2023/03/31 04:55:48;;;;;;;5.83;1.60;;;7.80;75.10;;;;;;6209966;23;20649;-79
2023/03/31 04:58:14;;;;;;;5.10;1.57;;;7.70;99.90;;;;;;6183051;23;20162;-79
2023/03/31 05:00:40;;;;;;;5.30;1.93;;;7.60;1.00;;;;;;6209344;23;20208;-79
2023/03/31 05:03:05;;;;;;;3.47;1.60;;;7.70;1.00;;;;;;6209391;23;20154;-79
2023/03/31 05:05:31;;;;;;;4.53;1.30;;;7.60;1.00;;;;;;6209111;23;20619;-79
2023/03/31 05:07:57;;;;;;;4.70;1.70;;;7.60;1.00;;;;;;6182548;23;20189;-79
2023/03/31 05:10:23;;;;;;;5.50;1.70;;;7.60;1.00;;;;;;6209384;23;20606;-79
2023/03/31 05:12:48;;;;;;;4.43;1.83;;;7.70;99.90;;;;;;6209692;23;20249;-79
2023/03/31 05:15:14;;;;;;;2.80;1.70;;;7.70;99.90;;;;;;6209080;23;20964;-79
2023/03/31 05:17:40;;;;;;;4.93;1.90;;;7.80;99.90;;;;;;6209197;23;20184;-79
2023/03/31 05:20:07;;;;;;;4.43;1.70;;;7.90;99.90;;;;;;6210065;23;20200;-79
2023/03/31 05:22:37;;;;;;;3.17;1.23;;;8.00;99.90;;;;;;6208562;23;20250;-81
2023/03/31 05:25:05;;;;;;;3.73;1.40;;;8.10;1.00;;;;;;6180949;23;20217;-79
2023/03/31 05:27:31;;;;;;;6.37;1.80;;;8.20;1.00;;;;;;6208786;23;20510;-78
2023/03/31 05:29:57;;;;;;;4.63;1.57;;;8.40;1.00;;;;;;6181480;23;20154;-79
2023/03/31 05:32:23;;;;;;;4.47;1.60;;;8.50;99.90;;;;;;6182114;23;20158;-79
2023/03/31 05:34:51;;;;;;;3.13;1.33;;;8.50;99.90;;;;;;6207956;23;20178;-78
2023/03/31 05:37:19;;;;;;;2.77;1.50;;;8.60;93.90;;;;;;6182178;23;20174;-80
2023/03/31 05:39:45;;;;;;;3.80;1.30;;;8.70;1.00;;;;;;6182917;23;20155;-76
2023/03/31 05:42:11;;;;;;;3.57;1.57;;;8.80;1.00;;;;;;6212659;23;20637;-77
2023/03/31 05:44:36;;;;;;;3.90;1.60;;;8.90;1.00;;;;;;6210945;23;20595;-77
2023/03/31 05:47:02;;;;;;;3.67;1.60;;;8.90;1.00;;;;;;6183138;23;20151;-79
2023/03/31 05:49:28;;;;;;;3.73;1.63;;;9.00;1.00;;;;;;6209372;23;20197;-80
2023/03/31 05:51:53;;;;;;;3.03;1.20;;;9.10;1.00;;;;;;6208242;23;20229;-77
2023/03/31 05:54:19;;;;;;;4.57;1.60;;;9.20;99.90;;;;;;6208684;23;20146;-78
2023/03/31 05:56:45;;;;;;;7.17;1.50;;;9.30;99.90;;;;;;6208100;23;20167;-77
2023/03/31 05:59:10;;;;;;;6.60;1.57;;;9.30;99.90;;;;;;6208183;23;20542;-76
2023/03/31 06:01:36;;;;;;;5.03;1.90;;;9.40;99.90;;;;;;6183507;23;20743;-80
2023/03/31 06:04:01;;;;;;;3.87;2.23;;;9.40;99.90;;;;;;6184263;23;20157;-82
2023/03/31 06:06:27;;;;;;;4.77;1.50;;;9.50;99.90;;;;;;6183767;23;20182;-81
2023/03/31 06:08:53;;;;;;;3.33;1.30;;;9.50;99.90;;;;;;6211050;23;20316;-83
2023/03/31 06:11:20;;;;;;;4.77;1.53;;;9.50;99.90;;;;;;6184151;23;20211;-79
2023/03/31 06:13:47;;;;;;;4.20;1.40;;;9.50;99.90;;;;;;6210407;23;20242;-82
2023/03/31 06:16:15;;;;;;;3.77;1.30;;;9.50;99.90;;;;;;6184327;23;20200;-80
2023/03/31 06:18:41;;;;;;;4.17;1.67;;;9.50;99.90;;;;;;6184274;23;20166;-79
2023/03/31 06:21:07;;;;;;;3.97;1.27;;;9.60;99.90;;;;;;6184202;23;20162;-83
2023/03/31 06:23:33;;;;;;;3.33;1.50;;;9.70;99.90;;;;;;6184255;23;20591;-80
2023/03/31 06:26:07;;;;;;;3.47;1.58;;;9.80;99.90;;;;;;6210550;23;20615;-80
2023/03/31 06:28:34;;;;;;;5.07;1.23;;;9.80;99.90;;;;;;6212588;23;20178;-81
2023/03/31 06:31:05;;;;;;;4.33;1.23;;;10.00;99.90;;;;;;6187206;23;20773;-78
2023/03/31 06:33:32;;;;;;;3.17;1.10;;;10.00;99.90;;;;;;6207683;23;20224;-78
2023/03/31 06:36:00;;;;;;;3.73;1.00;;;10.10;99.90;;;;;;6207726;23;20201;-77
2023/03/31 06:38:26;;;;;;;3.33;1.23;;;10.10;99.90;;;;;;6208081;23;20876;-79
2023/03/31 06:40:52;;;;;;;3.20;1.42;;;10.20;99.90;;;;;;6207755;23;20624;-77
2023/03/31 06:43:20;;;;;;;3.28;1.10;;;10.20;99.90;;;;;;6208676;23;20149;-80
2023/03/31 06:45:46;;;;;;;4.77;1.00;;;10.20;99.90;;;;;;6211250;23;20178;-78
2023/03/31 06:48:12;;;;;;;3.88;1.17;;;10.30;99.90;;;;;;6209610;23;20188;-77
2023/03/31 06:50:40;;;;;;;5.22;1.80;;;10.40;99.90;;;;;;6206958;23;20143;-77
2023/03/31 06:53:06;;;;;;;4.90;1.90;;;10.50;99.90;;;;;;6204411;23;20165;-78
2023/03/31 06:55:32;;;;;;;2.47;1.20;;;10.60;91.60;;;;;;6205229;23;20170;-76
2023/03/31 06:57:58;;;;;;;2.63;1.75;;;10.70;79.70;;;;;;6205427;23;20209;-78
2023/03/31 07:00:25;;;;;;;4.60;1.50;;;10.80;67.70;;;;;;6178100;23;20655;-76
2023/03/31 07:02:52;;;;;;;3.15;1.30;;;10.90;79.20;;;;;;6206309;23;20654;-77
2023/03/31 07:05:18;;;;;;;1.95;1.02;;;11.00;48.30;;;;;;6208108;23;20194;-78
2023/03/31 07:07:44;;;;;;;3.78;1.90;;;11.10;43.10;;;;;;6206838;23;20188;-77
2023/03/31 07:10:10;;;;;;;6.20;3.40;;;11.20;39.80;;;;;;6178898;23;20162;-77
2023/03/31 07:12:35;;;;;;;4.63;2.63;;;11.30;26.40;;;;;;6205777;23;20134;-77
2023/03/31 07:15:01;;;;;;;2.90;1.85;;;11.30;23.60;;;;;;6179273;23;21001;-78
2023/03/31 07:17:27;;;;;;;2.85;1.30;;;11.40;17.00;;;;;;6206434;23;20222;-77
2023/03/31 07:19:53;;;;;;;4.38;1.77;;;11.40;14.40;;;;;;6209206;23;20154;-79
2023/03/31 07:22:18;;;;;;;3.33;1.35;;;11.50;10.80;;;;;;6207853;23;20150;-77
2023/03/31 07:24:44;;;;;;;3.88;1.40;;;11.60;3.60;;;;;;6206697;23;20591;-78
2023/03/31 07:27:09;;;;;;;3.45;1.60;;;11.60;1.00;;;;;;6181112;23;20737;-78
2023/03/31 07:29:35;;;;;;;5.60;2.70;;;11.70;2.50;;;;;;6208720;23;20249;-80
2023/03/31 07:32:01;;;;;;;3.97;3.17;;;11.80;1.50;;;;;;6208728;23;20193;-78
2023/03/31 07:34:26;;;;;;;4.32;1.70;;;11.90;1.00;;;;;;6208392;23;20165;-80
2023/03/31 07:36:54;;;;;;;5.75;2.42;;;11.90;1.00;;;;;;6182624;23;20178;-79
2023/03/31 07:39:21;;;;;;;5.82;2.83;;;11.80;1.00;;;;;;6180937;23;20147;-78
2023/03/31 07:41:47;;;;;;;3.95;1.67;;;11.80;1.00;;;;;;6180879;23;20235;-78
2023/03/31 07:44:14;;;;;;;5.30;2.70;;;11.60;1.00;;;;;;6184516;23;20622;-77
2023/03/31 07:46:40;;;;;;;4.75;2.25;;;11.60;1.00;;;;;;6216635;23;20178;-80
2023/03/31 07:49:06;;;;;;;5.95;2.45;;;11.50;1.00;;;;;;6191909;23;20220;-78
2023/03/31 07:51:32;;;;;;;4.85;2.20;;;11.50;1.00;;;;;;6220053;23;20154;-77
2023/03/31 07:53:58;;;;;;;5.10;1.80;;;11.50;1.00;;;;;;6190118;23;20540;-77
2023/03/31 07:56:24;;;;;;;4.00;1.67;;;11.50;4.80;;;;;;6216820;23;20194;-77
2023/03/31 07:58:51;;;;;;;4.20;2.22;;;11.50;6.80;;;;;;6217384;23;20488;-79
2023/03/31 08:01:18;;;;;;;3.88;2.00;;;11.50;4.10;;;;;;6220618;23;20150;-77
2023/03/31 08:03:46;;;;;;;3.65;1.40;;;11.50;7.50;;;;;;6220907;23;20178;-77
2023/03/31 08:06:18;;;;;;;6.28;2.60;;;11.50;9.40;;;;;;6193194;23;20688;-77
2023/03/31 08:08:44;;;;;;;5.32;2.50;;;11.50;10.20;;;;;;6220369;23;20173;-77
2023/03/31 08:11:10;;;;;;;3.90;1.88;;;11.40;7.80;;;;;;6217593;23;20229;-79
2023/03/31 08:13:35;;;;;;;4.30;2.03;;;11.40;22.10;;;;;;6223010;23;20158;-79
2023/03/31 08:16:01;;;;;;;5.43;2.42;;;11.40;11.80;;;;;;6197892;23;20174;-78
2023/03/31 08:18:27;;;;;;;4.70;2.85;;;11.30;12.90;;;;;;6220866;23;20155;-77
2023/03/31 08:20:53;;;;;;;5.05;2.30;;;11.30;27.10;;;;;;6223585;23;20142;-79
2023/03/31 08:23:19;;;;;;;2.70;1.45;;;11.20;21.60;;;;;;6225341;23;20296;-79
2023/03/31 08:25:44;;;;;;;4.70;1.90;;;11.30;24.30;;;;;;6224791;23;20171;-78
2023/03/31 08:28:12;;;;;;;5.35;2.10;;;11.30;25.00;;;;;;6218403;23;20182;-77
2023/03/31 08:30:39;;;;;;;3.28;2.10;;;11.30;23.80;;;;;;6192679;23;20155;-78
2023/03/31 08:33:06;;;;;;;4.45;1.63;;;11.30;24.80;;;;;;6218873;23;20182;-80
2023/03/31 08:35:33;;;;;;;3.38;1.80;;;11.30;16.80;;;;;;6215843;23;20273;-79
2023/03/31 08:37:59;;;;;;;5.38;1.92;;;11.30;22.00;;;;;;6208881;23;20237;-79
2023/03/31 08:40:27;;;;;;;4.15;0.90;;;11.40;20.10;;;;;;6182992;23;20166;-79
2023/03/31 08:42:57;;;;;;;1.65;0.90;;;11.40;23.30;;;;;;6212699;23;20181;-78
2023/03/31 08:45:32;;;;;;;2.53;1.00;;;11.50;5.50;;;;;;6188259;23;20208;-78
2023/03/31 08:48:13;;;;;;;4.05;1.35;;;11.60;1.00;;;;;;6212570;23;20231;-80
2023/03/31 08:50:45;;;;;;;3.78;1.40;;;11.70;1.00;;;;;;6212870;23;20139;-79
2023/03/31 08:53:20;;;;;;;3.50;1.08;;;11.70;1.00;;;;;;6208183;23;20139;-79
2023/03/31 08:55:49;;;;;;;3.95;0.95;;;11.60;1.00;;;;;;6182138;23;20580;-79
2023/03/31 08:58:26;;;;;;;1.95;0.85;;;11.70;1.00;;;;;;6182009;23;20166;-81
2023/03/31 09:01:20;;;;;;;3.00;0.95;;;11.70;1.00;;;;;;6184324;23;20923;-81
2023/03/31 09:04:12;;;;;;;4.47;1.15;;;11.60;1.00;;;;;;6210879;23;20153;-80
2023/03/31 09:06:53;;;;;;;2.20;0.88;;;11.70;1.00;;;;;;6182286;23;20213;-80
2023/03/31 09:09:48;;;;;;;2.05;1.00;;;11.80;1.00;;;;;;6207198;23;20594;-80
2023/03/31 09:12:22;;;;;;;2.55;1.08;;;11.80;1.00;;;;;;6180528;23;20165;-80
2023/03/31 09:14:53;;;;;;;2.15;0.70;;;11.80;1.00;;;;;;6181066;23;20134;-80
2023/03/31 09:17:46;;;;;;;2.70;0.82;;;11.80;1.00;;;;;;6181054;23;20468;-80
2023/03/31 09:20:30;;;;;;;2.75;1.30;;;11.90;1.00;;;;;;6202389;23;20170;-80
2023/03/31 09:23:16;;;;;;;2.92;0.98;;;11.90;1.00;;;;;;6205122;23;20477;-80
2023/03/31 09:25:43;;;;;;;2.53;1.10;;;11.90;1.00;;;;;;6207290;23;20184;-80
2023/03/31 09:28:19;;;;;;;2.70;1.00;;;11.90;1.00;;;;;;6208635;23;20182;-81
2023/03/31 09:30:48;;;;;;;1.45;0.75;;;11.90;1.00;;;;;;6207984;23;20138;-80
2023/03/31 09:33:18;;;;;;;4.43;1.30;;;11.90;1.00;;;;;;6207545;23;20146;-80
2023/03/31 09:35:44;;;;;;;2.15;1.10;;;12.00;1.00;;;;;;6181446;23;20182;-80
2023/03/31 09:38:14;;;;;;;2.55;1.10;;;12.00;1.00;;;;;;6180680;23;20158;-80
2023/03/31 09:40:41;;;;;;;1.33;0.98;;;12.00;1.00;;;;;;6182297;23;20189;-80
2023/03/31 09:43:27;;;;;;;3.83;1.02;;;11.90;1.00;;;;;;6209015;23;20627;-80
2023/03/31 09:45:53;;;;;;;2.67;1.02;;;12.00;1.00;;;;;;6211316;23;20608;-80
2023/03/31 09:48:26;;;;;;;2.25;0.90;;;12.30;1.00;;;;;;6211412;23;20261;-80
2023/03/31 09:51:00;;;;;;;1.83;0.80;;;12.00;1.00;;;;;;6208357;23;20158;-80
2023/03/31 09:53:33;;;;;;;1.52;0.60;;;12.00;1.00;;;;;;6181848;23;20231;-80
2023/03/31 09:56:06;;;;;;;3.85;0.85;;;11.90;1.00;;;;;;6184153;23;20178;-80
2023/03/31 09:58:43;;;;;;;4.47;1.02;;;11.70;1.00;;;;;;6211457;23;20145;-80
2023/03/31 10:01:11;;;;;;;2.22;0.90;;;11.70;1.00;;;;;;6211659;23;20395;-80
2023/03/31 10:03:52;;;;;;;2.03;0.80;;;11.60;12.20;;;;;;6184668;23;20254;-80
2023/03/31 10:06:19;;;;;;;2.60;0.70;;;11.50;3.00;;;;;;6209685;23;20174;-80
2023/03/31 10:08:55;;;;;;;1.40;0.70;;;11.40;6.50;;;;;;6207931;23;20186;-82
2023/03/31 10:11:21;;;;;;;0.90;0.65;;;11.20;2.60;;;;;;6184674;23;20150;-80
2023/03/31 10:14:13;;;;;;;2.15;0.70;;;11.10;8.50;;;;;;6184581;23;20186;-80
2023/03/31 10:16:44;;;;;;;2.50;0.90;;;11.00;24.70;;;;;;6182178;23;20246;-81
2023/03/31 10:19:31;;;;;;;2.60;1.10;;;11.00;32.00;;;;;;6179728;23;20163;-80
2023/03/31 10:22:01;;;;;;;1.55;0.88;;;10.90;67.60;;;;;;6207624;23;20197;-79
2023/03/31 10:24:41;;;;;;;2.13;0.90;;;10.90;65.30;;;;;;6180543;23;20221;-80
2023/03/31 10:27:29;;;;;;;2.63;0.70;;;10.80;99.90;;;;;;6209738;23;20594;-80
2023/03/31 10:29:57;;;;;;;1.92;1.02;;;10.80;99.90;;;;;;6173439;23;20633;-80
2023/03/31 10:32:27;;;;;;;2.60;0.75;;;10.80;99.90;;;;;;6201265;23;20154;-80
2023/03/31 10:34:55;;;;;;;2.60;0.68;;;10.70;99.90;;;;;;6200859;23;20560;-81
2023/03/31 10:37:24;;;;;;;1.35;0.60;;;10.60;99.90;;;;;;6201033;23;20150;-81
2023/03/31 10:40:05;;;;;;;2.00;0.80;;;10.50;99.90;;;;;;6203238;23;20154;-80
2023/03/31 10:42:31;;;;;;;2.87;0.87;;;10.30;99.90;;;;;;6204426;23;20166;-81
2023/03/31 10:45:19;;;;;;;2.33;0.87;;;10.30;99.90;;;;;;6202683;23;20248;-80
2023/03/31 10:47:48;;;;;;;0.50;0.50;;;10.20;99.90;;;;;;6200971;23;20269;-81
2023/03/31 10:50:15;;;;;;;1.70;0.87;;;10.20;99.90;;;;;;6204737;23;20232;-81
2023/03/31 10:52:46;;;;;;;1.47;0.70;;;10.10;1.00;;;;;;6182926;23;20158;-80
2023/03/31 10:55:17;;;;;;;1.33;0.63;;;10.00;1.00;;;;;;6180142;23;20248;-80
2023/03/31 10:57:48;;;;;;;2.50;1.13;;;10.00;1.00;;;;;;6208648;23;20150;-80
2023/03/31 11:01:02;;;;;;;1.60;0.87;;;10.00;1.00;;;;;;6180721;23;20151;-80
2023/03/31 11:03:36;;;;;;;2.80;1.43;;;10.00;1.00;;;;;;6208182;23;20156;-80
2023/03/31 11:06:04;;;;;;;1.70;0.70;;;10.10;1.00;;;;;;6210080;23;20170;-80
2023/03/31 11:08:39;;;;;;;1.47;0.80;;;10.00;1.00;;;;;;6208159;23;20240;-79
2023/03/31 11:11:46;;;;;;;5.03;2.70;;;10.10;1.00;;;;;;6206651;23;20204;-80
2023/03/31 11:14:39;;;;;;;0.60;0.50;;;10.20;1.00;;;;;;6206803;23;20225;-79
2023/03/31 11:17:30;;;;;;;0.93;0.70;;;10.10;99.90;;;;;;6205849;23;20142;-80
2023/03/31 11:20:32;;;;;;;1.65;0.90;;;10.20;99.90;;;;;;6178872;23;20158;-80
2023/03/31 11:23:13;;;;;;;1.53;0.80;;;10.10;99.90;;;;;;6180291;23;20149;-81
2023/03/31 11:25:49;;;;;;;1.53;0.70;;;10.20;99.90;;;;;;6180804;23;20181;-80
2023/03/31 11:29:04;;;;;;;1.17;0.60;;;10.20;1.00;;;;;;6206978;23;20197;-80
2023/03/31 11:32:02;;;;;;;1.43;0.50;;;10.30;99.90;;;;;;6174990;23;20158;-80
2023/03/31 11:35:04;;;;;;;1.03;0.60;;;10.30;99.90;;;;;;6173590;23;20159;-80
2023/03/31 11:37:40;;;;;;;0.90;0.50;;;10.30;99.90;;;;;;6180957;23;20142;-79
2023/03/31 11:40:20;;;;;;;1.07;0.50;;;10.30;99.90;;;;;;6178125;23;20173;-80
2023/03/31 11:42:56;;;;;;;1.20;0.70;;;10.30;99.90;;;;;;6180342;23;20178;-80
2023/03/31 11:45:30;;;;;;;1.37;0.77;;;10.30;99.90;;;;;;6208680;23;20220;-80
2023/03/31 11:48:02;;;;;;;1.30;0.77;;;10.30;99.90;;;;;;6205477;23;20438;-80
2023/03/31 11:50:38;;;;;;;1.57;0.80;;;10.40;99.90;;;;;;6181048;23;20146;-80
2023/03/31 11:53:25;;;;;;;0.80;0.50;;;10.40;99.90;;;;;;6180239;23;20566;-82
2023/03/31 11:55:56;;;;;;;1.87;0.80;;;10.40;99.90;;;;;;6206052;23;20705;-80
2023/03/31 11:58:31;;;;;;;1.37;1.00;;;10.40;99.90;;;;;;6180014;23;20150;-80
2023/03/31 12:01:09;;;;;;;1.83;0.83;;;10.60;99.90;;;;;;6180013;23;20215;-81
2023/03/31 12:04:00;;;;;;;0.75;0.60;;;10.60;99.90;;;;;;6179354;23;20197;-79
2023/03/31 12:06:33;;;;;;;0.70;0.60;;;10.80;99.90;;;;;;6173760;23;20663;-80
2023/03/31 12:09:14;;;;;;;2.20;2.00;;;10.90;99.90;;;;;;6204729;23;20177;-80
2023/03/31 12:12:09;;;;;;;1.90;1.20;;;11.00;99.90;;;;;;6179711;23;20157;-80
2023/03/31 12:14:42;;;;;;;1.67;0.93;;;11.10;99.90;;;;;;6178367;23;20502;-80
2023/03/31 12:17:14;;;;;;;1.35;0.50;;;11.30;99.90;;;;;;6179386;23;20147;-80
2023/03/31 12:19:51;;;;;;;0.68;0.65;;;11.50;99.90;;;;;;6179452;23;20160;-80
2023/03/31 12:22:37;;;;;;;1.35;0.70;;;11.60;99.90;;;;;;6205469;23;20155;-80
2023/03/31 12:25:04;;;;;;;1.10;0.70;;;11.90;99.90;;;;;;6179094;23;20263;-80
2023/03/31 12:27:41;;;;;;;1.30;0.68;;;12.00;99.90;;;;;;6206909;23;20209;-81
2023/03/31 12:30:15;;;;;;;0.93;0.60;;;12.10;91.60;;;;;;6206855;23;20211;-79
2023/03/31 12:32:45;;;;;;;1.58;0.95;;;11.80;63.90;;;;;;6180662;23;20151;-81
2023/03/31 12:35:39;;;;;;;1.27;0.63;;;11.80;85.50;;;;;;6206704;23;20640;-80
2023/03/31 12:38:10;;;;;;;1.15;0.60;;;11.70;92.90;;;;;;6206711;23;20159;-80
2023/03/31 12:40:53;;;;;;;0.65;0.60;;;11.60;99.90;;;;;;6206662;23;20170;-80
2023/03/31 12:43:34;;;;;;;0.55;0.50;;;11.70;99.90;;;;;;6206444;23;20158;-80
2023/03/31 12:45:59;;;;;;;0.40;0.40;;;11.90;99.90;;;;;;6179970;23;20186;-80
2023/03/31 12:49:04;;;;;;;0.82;0.50;;;12.10;91.70;;;;;;6179852;23;20630;-80
2023/03/31 12:51:40;;;;;;;2.08;1.77;;;12.40;90.20;;;;;;6208818;23;20134;-80
2023/03/31 12:54:24;;;;;;;0.85;0.80;;;12.80;78.50;;;;;;6209575;23;20473;-80
2023/03/31 12:56:59;;;;;;;0.75;0.55;;;12.80;16.10;;;;;;6181874;23;20178;-80
2023/03/31 12:59:38;;;;;;;0.90;0.50;;;13.00;16.90;;;;;;6208666;23;20161;-80
2023/03/31 13:02:15;;;;;;;0.63;0.40;;;13.00;24.50;;;;;;6182349;23;20162;-80
2023/03/31 13:04:42;;;;;;;2.30;0.63;;;12.80;1.00;;;;;;6181356;23;20162;-79
2023/03/31 13:07:25;;;;;;;2.45;0.60;;;12.80;5.90;;;;;;6208273;23;20226;-80
2023/03/31 13:10:20;;;;;;;0.63;0.40;;;12.80;11.90;;;;;;6208187;23;20138;-80
2023/03/31 13:13:19;;;;;;;1.42;1.05;;;12.90;15.40;;;;;;6181547;23;20161;-80
2023/03/31 13:15:56;;;;;;;0.65;0.65;;;13.00;28.10;;;;;;6181965;23;20189;-80
2023/03/31 13:18:23;;;;;;;0.80;0.80;;;13.00;17.80;;;;;;6209230;23;20150;-79
2023/03/31 13:21:08;;;;;;;1.13;0.70;;;13.00;15.70;;;;;;6208799;23;20197;-80
2023/03/31 13:23:35;;;;;;;1.30;0.80;;;13.10;6.80;;;;;;6181496;23;20237;-79